sensor_id;sensor_type;location;lat;lon;timestamp;P1;durP1;ratioP1;P2;durP2;ratioP2
55827;SDS011;41758;51.992;5.890;2022-07-01T00:00:12;16.13;;;14.32;;
55827;SDS011;41758;51.992;5.890;2022-07-01T00:02:38;16.48;;;12.73;;
55827;SDS011;41758;51.992;5.890;2022-07-01T00:05:04;12.52;;;10.75;;
55827;SDS011;41758;51.992;5.890;2022-07-01T00:07:45;10.98;;;9.45;;
55827;SDS011;41758;51.992;5.890;2022-07-01T00:10:12;12.13;;;10.68;;
55827;SDS011;41758;51.992;5.890;2022-07-01T00:12:38;11.32;;;9.48;;
55827;SDS011;41758;51.992;5.890;2022-07-01T00:15:04;12.93;;;9.52;;
55827;SDS011;41758;51.992;5.890;2022-07-01T00:17:30;12.60;;;11.27;;
55827;SDS011;41758;51.992;5.890;2022-07-01T00:19:56;12.90;;;11.27;;
55827;SDS011;41758;51.992;5.890;2022-07-01T00:22:21;14.27;;;12.77;;
55827;SDS011;41758;51.992;5.890;2022-07-01T00:24:50;13.65;;;10.63;;
55827;SDS011;41758;51.992;5.890;2022-07-01T00:27:15;10.95;;;9.45;;
55827;SDS011;41758;51.992;5.890;2022-07-01T00:29:41;12.80;;;11.07;;
55827;SDS011;41758;51.992;5.890;2022-07-01T00:32:07;9.57;;;8.05;;
55827;SDS011;41758;51.992;5.890;2022-07-01T00:34:34;14.38;;;12.50;;
55827;SDS011;41758;51.992;5.890;2022-07-01T00:37:00;14.23;;;12.70;;
55827;SDS011;41758;51.992;5.890;2022-07-01T00:39:26;12.30;;;10.63;;
55827;SDS011;41758;51.992;5.890;2022-07-01T00:41:51;12.07;;;10.38;;
55827;SDS011;41758;51.992;5.890;2022-07-01T00:44:18;12.55;;;11.25;;
55827;SDS011;41758;51.992;5.890;2022-07-01T00:46:44;13.38;;;10.80;;
55827;SDS011;41758;51.992;5.890;2022-07-01T00:49:11;12.75;;;10.45;;
55827;SDS011;41758;51.992;5.890;2022-07-01T00:51:38;18.63;;;13.57;;
55827;SDS011;41758;51.992;5.890;2022-07-01T00:54:04;20.85;;;16.23;;
55827;SDS011;41758;51.992;5.890;2022-07-01T00:56:30;16.10;;;14.07;;
55827;SDS011;41758;51.992;5.890;2022-07-01T00:58:56;14.05;;;12.40;;
55827;SDS011;41758;51.992;5.890;2022-07-01T01:01:22;14.68;;;12.88;;
55827;SDS011;41758;51.992;5.890;2022-07-01T01:03:48;17.90;;;14.70;;
55827;SDS011;41758;51.992;5.890;2022-07-01T01:06:15;16.42;;;14.75;;
55827;SDS011;41758;51.992;5.890;2022-07-01T01:08:41;15.13;;;13.35;;
55827;SDS011;41758;51.992;5.890;2022-07-01T01:11:07;20.23;;;15.68;;
55827;SDS011;41758;51.992;5.890;2022-07-01T01:13:34;16.92;;;14.90;;
55827;SDS011;41758;51.992;5.890;2022-07-01T01:15:59;17.35;;;15.00;;
55827;SDS011;41758;51.992;5.890;2022-07-01T01:18:25;19.02;;;14.85;;
55827;SDS011;41758;51.992;5.890;2022-07-01T01:20:54;13.73;;;11.15;;
55827;SDS011;41758;51.992;5.890;2022-07-01T01:23:20;18.95;;;12.48;;
55827;SDS011;41758;51.992;5.890;2022-07-01T01:25:47;26.88;;;22.63;;
55827;SDS011;41758;51.992;5.890;2022-07-01T01:28:13;23.23;;;17.42;;
55827;SDS011;41758;51.992;5.890;2022-07-01T01:30:39;32.45;;;25.50;;
55827;SDS011;41758;51.992;5.890;2022-07-01T01:33:04;29.90;;;23.35;;
55827;SDS011;41758;51.992;5.890;2022-07-01T01:35:33;27.15;;;21.77;;
55827;SDS011;41758;51.992;5.890;2022-07-01T01:37:59;34.60;;;27.85;;
55827;SDS011;41758;51.992;5.890;2022-07-01T01:40:25;24.77;;;18.55;;
55827;SDS011;41758;51.992;5.890;2022-07-01T01:42:51;35.35;;;27.30;;
55827;SDS011;41758;51.992;5.890;2022-07-01T01:45:17;29.10;;;23.00;;
55827;SDS011;41758;51.992;5.890;2022-07-01T01:47:43;32.78;;;26.02;;
55827;SDS011;41758;51.992;5.890;2022-07-01T01:50:09;35.85;;;27.00;;
55827;SDS011;41758;51.992;5.890;2022-07-01T01:52:37;30.73;;;25.40;;
55827;SDS011;41758;51.992;5.890;2022-07-01T01:55:04;27.65;;;22.23;;
55827;SDS011;41758;51.992;5.890;2022-07-01T01:57:30;36.47;;;30.00;;
55827;SDS011;41758;51.992;5.890;2022-07-01T01:59:56;35.22;;;26.67;;
55827;SDS011;41758;51.992;5.890;2022-07-01T02:02:22;31.08;;;24.98;;
55827;SDS011;41758;51.992;5.890;2022-07-01T02:04:48;33.17;;;27.35;;
55827;SDS011;41758;51.992;5.890;2022-07-01T02:07:14;28.80;;;22.15;;
55827;SDS011;41758;51.992;5.890;2022-07-01T02:09:40;32.35;;;26.75;;
55827;SDS011;41758;51.992;5.890;2022-07-01T02:12:06;36.17;;;29.52;;
55827;SDS011;41758;51.992;5.890;2022-07-01T02:14:32;33.60;;;28.83;;
55827;SDS011;41758;51.992;5.890;2022-07-01T02:16:58;26.70;;;21.67;;
55827;SDS011;41758;51.992;5.890;2022-07-01T02:19:23;24.88;;;19.70;;
55827;SDS011;41758;51.992;5.890;2022-07-01T02:21:49;32.15;;;26.65;;
55827;SDS011;41758;51.992;5.890;2022-07-01T02:24:18;29.95;;;23.55;;
55827;SDS011;41758;51.992;5.890;2022-07-01T02:26:44;32.60;;;27.02;;
55827;SDS011;41758;51.992;5.890;2022-07-01T02:29:10;25.15;;;21.00;;
55827;SDS011;41758;51.992;5.890;2022-07-01T02:31:36;28.90;;;23.88;;
55827;SDS011;41758;51.992;5.890;2022-07-01T02:34:02;26.05;;;20.98;;
55827;SDS011;41758;51.992;5.890;2022-07-01T02:36:28;36.28;;;30.25;;
55827;SDS011;41758;51.992;5.890;2022-07-01T02:38:53;29.85;;;24.25;;
55827;SDS011;41758;51.992;5.890;2022-07-01T02:41:19;29.60;;;23.92;;
55827;SDS011;41758;51.992;5.890;2022-07-01T02:43:45;33.83;;;28.20;;
55827;SDS011;41758;51.992;5.890;2022-07-01T02:46:10;27.20;;;23.17;;
55827;SDS011;41758;51.992;5.890;2022-07-01T02:48:36;27.30;;;22.67;;
55827;SDS011;41758;51.992;5.890;2022-07-01T02:51:02;29.30;;;25.10;;
55827;SDS011;41758;51.992;5.890;2022-07-01T02:53:28;31.33;;;26.58;;
55827;SDS011;41758;51.992;5.890;2022-07-01T02:55:53;31.88;;;26.23;;
55827;SDS011;41758;51.992;5.890;2022-07-01T02:58:19;23.35;;;20.17;;
55827;SDS011;41758;51.992;5.890;2022-07-01T03:00:45;26.02;;;20.90;;
55827;SDS011;41758;51.992;5.890;2022-07-01T03:03:13;32.33;;;25.30;;
55827;SDS011;41758;51.992;5.890;2022-07-01T03:05:39;31.85;;;24.90;;
55827;SDS011;41758;51.992;5.890;2022-07-01T03:08:05;27.75;;;22.77;;
55827;SDS011;41758;51.992;5.890;2022-07-01T03:10:31;24.73;;;20.42;;
55827;SDS011;41758;51.992;5.890;2022-07-01T03:12:57;25.00;;;19.73;;
55827;SDS011;41758;51.992;5.890;2022-07-01T03:15:24;23.20;;;19.83;;
55827;SDS011;41758;51.992;5.890;2022-07-01T03:17:50;24.75;;;20.88;;
55827;SDS011;41758;51.992;5.890;2022-07-01T03:20:16;32.03;;;26.10;;
55827;SDS011;41758;51.992;5.890;2022-07-01T03:22:43;25.33;;;22.02;;
55827;SDS011;41758;51.992;5.890;2022-07-01T03:25:10;36.20;;;28.13;;
55827;SDS011;41758;51.992;5.890;2022-07-01T03:27:36;26.00;;;20.60;;
55827;SDS011;41758;51.992;5.890;2022-07-01T03:30:03;26.05;;;21.83;;
55827;SDS011;41758;51.992;5.890;2022-07-01T03:32:32;25.55;;;22.35;;
55827;SDS011;41758;51.992;5.890;2022-07-01T03:34:59;29.88;;;25.08;;
55827;SDS011;41758;51.992;5.890;2022-07-01T03:37:24;31.92;;;25.85;;
55827;SDS011;41758;51.992;5.890;2022-07-01T03:39:50;31.35;;;24.95;;
55827;SDS011;41758;51.992;5.890;2022-07-01T03:42:18;28.42;;;22.38;;
55827;SDS011;41758;51.992;5.890;2022-07-01T03:44:44;29.63;;;24.15;;
55827;SDS011;41758;51.992;5.890;2022-07-01T03:47:10;32.05;;;26.13;;
55827;SDS011;41758;51.992;5.890;2022-07-01T03:49:36;24.27;;;20.40;;
55827;SDS011;41758;51.992;5.890;2022-07-01T03:52:02;25.92;;;20.50;;
55827;SDS011;41758;51.992;5.890;2022-07-01T03:54:29;25.05;;;20.83;;
55827;SDS011;41758;51.992;5.890;2022-07-01T03:59:25;29.05;;;23.73;;
55827;SDS011;41758;51.992;5.890;2022-07-01T04:01:52;31.58;;;25.20;;
55827;SDS011;41758;51.992;5.890;2022-07-01T04:04:18;28.55;;;23.27;;
55827;SDS011;41758;51.992;5.890;2022-07-01T04:06:44;27.88;;;22.55;;
55827;SDS011;41758;51.992;5.890;2022-07-01T04:09:11;23.45;;;19.55;;
55827;SDS011;41758;51.992;5.890;2022-07-01T04:11:39;24.75;;;18.13;;
55827;SDS011;41758;51.992;5.890;2022-07-01T04:14:09;30.38;;;22.35;;
55827;SDS011;41758;51.992;5.890;2022-07-01T04:16:36;31.60;;;23.70;;
55827;SDS011;41758;51.992;5.890;2022-07-01T04:19:02;26.00;;;20.45;;
55827;SDS011;41758;51.992;5.890;2022-07-01T04:21:28;26.60;;;21.92;;
55827;SDS011;41758;51.992;5.890;2022-07-01T04:24:12;23.95;;;18.77;;
55827;SDS011;41758;51.992;5.890;2022-07-01T04:26:39;26.83;;;21.70;;
55827;SDS011;41758;51.992;5.890;2022-07-01T04:29:05;27.23;;;22.05;;
55827;SDS011;41758;51.992;5.890;2022-07-01T04:31:33;27.40;;;22.33;;
55827;SDS011;41758;51.992;5.890;2022-07-01T04:33:59;25.38;;;20.70;;
55827;SDS011;41758;51.992;5.890;2022-07-01T04:36:25;25.65;;;20.63;;
55827;SDS011;41758;51.992;5.890;2022-07-01T04:38:51;23.30;;;19.20;;
55827;SDS011;41758;51.992;5.890;2022-07-01T04:41:16;28.67;;;20.92;;
55827;SDS011;41758;51.992;5.890;2022-07-01T04:44:01;22.10;;;18.13;;
55827;SDS011;41758;51.992;5.890;2022-07-01T04:46:27;28.35;;;20.48;;
55827;SDS011;41758;51.992;5.890;2022-07-01T04:48:53;31.02;;;22.77;;
55827;SDS011;41758;51.992;5.890;2022-07-01T04:51:19;29.02;;;21.23;;
55827;SDS011;41758;51.992;5.890;2022-07-01T04:53:45;26.25;;;20.15;;
55827;SDS011;41758;51.992;5.890;2022-07-01T04:56:11;30.63;;;23.38;;
55827;SDS011;41758;51.992;5.890;2022-07-01T04:58:37;29.63;;;23.42;;
55827;SDS011;41758;51.992;5.890;2022-07-01T05:01:03;29.35;;;21.35;;
55827;SDS011;41758;51.992;5.890;2022-07-01T05:03:29;29.75;;;23.00;;
55827;SDS011;41758;51.992;5.890;2022-07-01T05:05:55;33.15;;;23.48;;
55827;SDS011;41758;51.992;5.890;2022-07-01T05:08:20;29.30;;;22.48;;
55827;SDS011;41758;51.992;5.890;2022-07-01T05:10:46;25.10;;;18.33;;
55827;SDS011;41758;51.992;5.890;2022-07-01T05:13:12;30.90;;;21.83;;
55827;SDS011;41758;51.992;5.890;2022-07-01T05:15:38;25.90;;;18.52;;
55827;SDS011;41758;51.992;5.890;2022-07-01T05:18:03;24.33;;;18.35;;
55827;SDS011;41758;51.992;5.890;2022-07-01T05:20:48;26.75;;;18.92;;
55827;SDS011;41758;51.992;5.890;2022-07-01T05:23:33;25.75;;;19.65;;
55827;SDS011;41758;51.992;5.890;2022-07-01T05:25:59;26.35;;;20.38;;
55827;SDS011;41758;51.992;5.890;2022-07-01T05:28:24;26.55;;;19.10;;
55827;SDS011;41758;51.992;5.890;2022-07-01T05:30:50;27.48;;;21.20;;
55827;SDS011;41758;51.992;5.890;2022-07-01T05:33:16;28.95;;;21.40;;
55827;SDS011;41758;51.992;5.890;2022-07-01T05:35:49;28.75;;;20.77;;
55827;SDS011;41758;51.992;5.890;2022-07-01T05:38:15;23.95;;;16.88;;
55827;SDS011;41758;51.992;5.890;2022-07-01T05:40:41;26.60;;;20.88;;
55827;SDS011;41758;51.992;5.890;2022-07-01T05:43:07;24.92;;;19.23;;
55827;SDS011;41758;51.992;5.890;2022-07-01T05:45:32;26.15;;;19.05;;
55827;SDS011;41758;51.992;5.890;2022-07-01T05:47:59;29.63;;;20.92;;
55827;SDS011;41758;51.992;5.890;2022-07-01T05:50:25;28.98;;;19.98;;
55827;SDS011;41758;51.992;5.890;2022-07-01T05:52:51;24.05;;;17.83;;
55827;SDS011;41758;51.992;5.890;2022-07-01T05:55:16;23.92;;;17.60;;
55827;SDS011;41758;51.992;5.890;2022-07-01T05:57:42;25.38;;;19.15;;
55827;SDS011;41758;51.992;5.890;2022-07-01T06:00:08;27.00;;;18.13;;
55827;SDS011;41758;51.992;5.890;2022-07-01T06:02:37;25.85;;;19.88;;
55827;SDS011;41758;51.992;5.890;2022-07-01T06:05:03;31.95;;;21.00;;
55827;SDS011;41758;51.992;5.890;2022-07-01T06:07:29;29.70;;;20.60;;
55827;SDS011;41758;51.992;5.890;2022-07-01T06:09:56;25.52;;;18.85;;
55827;SDS011;41758;51.992;5.890;2022-07-01T06:12:22;25.77;;;18.70;;
55827;SDS011;41758;51.992;5.890;2022-07-01T06:14:48;28.10;;;20.02;;
55827;SDS011;41758;51.992;5.890;2022-07-01T06:17:14;27.48;;;18.70;;
55827;SDS011;41758;51.992;5.890;2022-07-01T06:19:40;35.55;;;22.92;;
55827;SDS011;41758;51.992;5.890;2022-07-01T06:22:06;26.70;;;19.42;;
55827;SDS011;41758;51.992;5.890;2022-07-01T06:24:32;26.90;;;17.13;;
55827;SDS011;41758;51.992;5.890;2022-07-01T06:26:58;23.40;;;17.65;;
55827;SDS011;41758;51.992;5.890;2022-07-01T06:29:25;24.25;;;17.52;;
55827;SDS011;41758;51.992;5.890;2022-07-01T06:31:52;28.17;;;17.88;;
55827;SDS011;41758;51.992;5.890;2022-07-01T06:34:18;24.95;;;18.10;;
55827;SDS011;41758;51.992;5.890;2022-07-01T06:36:45;27.33;;;18.45;;
55827;SDS011;41758;51.992;5.890;2022-07-01T06:39:11;29.20;;;20.33;;
55827;SDS011;41758;51.992;5.890;2022-07-01T06:41:37;31.52;;;22.13;;
55827;SDS011;41758;51.992;5.890;2022-07-01T06:44:03;28.60;;;19.52;;
55827;SDS011;41758;51.992;5.890;2022-07-01T06:46:32;24.25;;;17.95;;
55827;SDS011;41758;51.992;5.890;2022-07-01T06:48:58;26.55;;;18.92;;
55827;SDS011;41758;51.992;5.890;2022-07-01T06:51:24;28.50;;;21.13;;
55827;SDS011;41758;51.992;5.890;2022-07-01T06:53:50;25.55;;;18.80;;
55827;SDS011;41758;51.992;5.890;2022-07-01T06:56:17;26.75;;;17.95;;
55827;SDS011;41758;51.992;5.890;2022-07-01T06:58:43;22.40;;;16.27;;
55827;SDS011;41758;51.992;5.890;2022-07-01T07:01:09;23.73;;;17.38;;
55827;SDS011;41758;51.992;5.890;2022-07-01T07:03:37;22.75;;;16.27;;
55827;SDS011;41758;51.992;5.890;2022-07-01T07:06:31;27.80;;;19.02;;
55827;SDS011;41758;51.992;5.890;2022-07-01T07:09:09;31.23;;;20.27;;
55827;SDS011;41758;51.992;5.890;2022-07-01T07:11:40;23.73;;;17.00;;
55827;SDS011;41758;51.992;5.890;2022-07-01T07:14:09;23.85;;;16.38;;
55827;SDS011;41758;51.992;5.890;2022-07-01T07:16:42;26.27;;;17.48;;
55827;SDS011;41758;51.992;5.890;2022-07-01T07:19:11;26.92;;;17.38;;
55827;SDS011;41758;51.992;5.890;2022-07-01T07:21:44;28.38;;;18.00;;
55827;SDS011;41758;51.992;5.890;2022-07-01T07:24:12;28.08;;;18.67;;
55827;SDS011;41758;51.992;5.890;2022-07-01T07:26:56;25.27;;;17.95;;
55827;SDS011;41758;51.992;5.890;2022-07-01T07:32:29;25.42;;;17.65;;
55827;SDS011;41758;51.992;5.890;2022-07-01T07:35:32;24.08;;;17.63;;
55827;SDS011;41758;51.992;5.890;2022-07-01T07:38:57;25.35;;;16.60;;
55827;SDS011;41758;51.992;5.890;2022-07-01T07:41:43;24.77;;;16.38;;
55827;SDS011;41758;51.992;5.890;2022-07-01T07:44:12;30.40;;;19.33;;
55827;SDS011;41758;51.992;5.890;2022-07-01T07:56:54;22.67;;;15.02;;
55827;SDS011;41758;51.992;5.890;2022-07-01T07:59:50;19.90;;;15.00;;
55827;SDS011;41758;51.992;5.890;2022-07-01T08:06:28;22.90;;;15.85;;
55827;SDS011;41758;51.992;5.890;2022-07-01T08:09:53;18.13;;;13.75;;
55827;SDS011;41758;51.992;5.890;2022-07-01T08:12:38;21.15;;;15.68;;
55827;SDS011;41758;51.992;5.890;2022-07-01T08:15:19;20.88;;;14.82;;
55827;SDS011;41758;51.992;5.890;2022-07-01T08:33:08;14.63;;;10.00;;
55827;SDS011;41758;51.992;5.890;2022-07-01T08:35:44;14.73;;;8.85;;
55827;SDS011;41758;51.992;5.890;2022-07-01T08:39:08;12.27;;;8.75;;
55827;SDS011;41758;51.992;5.890;2022-07-01T08:41:59;13.43;;;8.25;;
55827;SDS011;41758;51.992;5.890;2022-07-01T08:55:21;11.82;;;5.68;;
55827;SDS011;41758;51.992;5.890;2022-07-01T09:08:51;10.40;;;5.22;;
55827;SDS011;41758;51.992;5.890;2022-07-01T09:11:19;10.27;;;3.80;;
55827;SDS011;41758;51.992;5.890;2022-07-01T09:14:04;8.88;;;3.97;;
55827;SDS011;41758;51.992;5.890;2022-07-01T09:16:39;9.18;;;4.18;;
55827;SDS011;41758;51.992;5.890;2022-07-01T09:19:09;9.50;;;3.63;;
55827;SDS011;41758;51.992;5.890;2022-07-01T09:21:36;7.53;;;3.85;;
55827;SDS011;41758;51.992;5.890;2022-07-01T09:24:03;6.80;;;4.60;;
55827;SDS011;41758;51.992;5.890;2022-07-01T09:26:55;6.55;;;4.40;;
55827;SDS011;41758;51.992;5.890;2022-07-01T09:29:30;7.65;;;4.00;;
55827;SDS011;41758;51.992;5.890;2022-07-01T09:31:57;8.13;;;4.80;;
55827;SDS011;41758;51.992;5.890;2022-07-01T09:34:24;6.55;;;3.60;;
55827;SDS011;41758;51.992;5.890;2022-07-01T09:36:54;6.35;;;2.70;;
55827;SDS011;41758;51.992;5.890;2022-07-01T09:39:21;8.48;;;3.53;;
55827;SDS011;41758;51.992;5.890;2022-07-01T09:41:47;7.55;;;2.70;;
55827;SDS011;41758;51.992;5.890;2022-07-01T09:44:13;8.13;;;3.00;;
55827;SDS011;41758;51.992;5.890;2022-07-01T09:46:50;8.02;;;2.75;;
55827;SDS011;41758;51.992;5.890;2022-07-01T09:49:21;6.18;;;3.10;;
55827;SDS011;41758;51.992;5.890;2022-07-01T09:51:48;5.32;;;2.63;;
55827;SDS011;41758;51.992;5.890;2022-07-01T09:54:17;7.82;;;2.60;;
55827;SDS011;41758;51.992;5.890;2022-07-01T09:56:44;5.15;;;2.60;;
55827;SDS011;41758;51.992;5.890;2022-07-01T09:59:18;7.47;;;3.30;;
55827;SDS011;41758;51.992;5.890;2022-07-01T10:01:44;6.68;;;3.40;;
55827;SDS011;41758;51.992;5.890;2022-07-01T10:04:10;8.68;;;3.67;;
55827;SDS011;41758;51.992;5.890;2022-07-01T10:09:39;5.57;;;3.35;;
55827;SDS011;41758;51.992;5.890;2022-07-01T10:15:02;5.53;;;3.17;;
55827;SDS011;41758;51.992;5.890;2022-07-01T10:17:31;7.18;;;3.80;;
55827;SDS011;41758;51.992;5.890;2022-07-01T10:20:14;5.43;;;2.60;;
55827;SDS011;41758;51.992;5.890;2022-07-01T10:22:41;5.43;;;3.15;;
55827;SDS011;41758;51.992;5.890;2022-07-01T10:30:48;5.63;;;2.20;;
55827;SDS011;41758;51.992;5.890;2022-07-01T10:35:53;4.85;;;2.33;;
55827;SDS011;41758;51.992;5.890;2022-07-01T10:38:19;4.78;;;1.80;;
55827;SDS011;41758;51.992;5.890;2022-07-01T10:40:45;6.13;;;2.95;;
55827;SDS011;41758;51.992;5.890;2022-07-01T10:43:17;6.22;;;2.97;;
55827;SDS011;41758;51.992;5.890;2022-07-01T10:46:00;6.75;;;1.85;;
55827;SDS011;41758;51.992;5.890;2022-07-01T10:48:26;4.38;;;1.88;;
55827;SDS011;41758;51.992;5.890;2022-07-01T10:50:56;3.95;;;1.65;;
55827;SDS011;41758;51.992;5.890;2022-07-01T10:53:22;3.95;;;1.95;;
55827;SDS011;41758;51.992;5.890;2022-07-01T10:55:52;7.85;;;2.38;;
55827;SDS011;41758;51.992;5.890;2022-07-01T10:58:19;3.85;;;1.90;;
55827;SDS011;41758;51.992;5.890;2022-07-01T11:01:03;5.88;;;1.70;;
55827;SDS011;41758;51.992;5.890;2022-07-01T11:03:33;4.70;;;1.70;;
55827;SDS011;41758;51.992;5.890;2022-07-01T11:06:00;3.90;;;1.65;;
55827;SDS011;41758;51.992;5.890;2022-07-01T11:08:26;5.13;;;1.98;;
55827;SDS011;41758;51.992;5.890;2022-07-01T11:10:54;4.00;;;1.58;;
55827;SDS011;41758;51.992;5.890;2022-07-01T11:13:21;3.17;;;1.38;;
55827;SDS011;41758;51.992;5.890;2022-07-01T11:15:47;4.05;;;2.35;;
55827;SDS011;41758;51.992;5.890;2022-07-01T11:18:14;4.05;;;1.73;;
55827;SDS011;41758;51.992;5.890;2022-07-01T11:20:41;3.80;;;1.50;;
55827;SDS011;41758;51.992;5.890;2022-07-01T11:23:07;6.45;;;1.90;;
55827;SDS011;41758;51.992;5.890;2022-07-01T11:25:32;5.32;;;1.35;;
55827;SDS011;41758;51.992;5.890;2022-07-01T11:27:59;4.20;;;1.40;;
55827;SDS011;41758;51.992;5.890;2022-07-01T11:30:26;3.92;;;1.58;;
55827;SDS011;41758;51.992;5.890;2022-07-01T11:32:53;5.20;;;2.10;;
55827;SDS011;41758;51.992;5.890;2022-07-01T11:35:26;4.50;;;1.90;;
55827;SDS011;41758;51.992;5.890;2022-07-01T11:38:17;5.30;;;2.05;;
55827;SDS011;41758;51.992;5.890;2022-07-01T11:41:07;4.97;;;1.73;;
55827;SDS011;41758;51.992;5.890;2022-07-01T11:44:05;3.35;;;1.55;;
55827;SDS011;41758;51.992;5.890;2022-07-01T11:46:59;3.20;;;1.67;;
55827;SDS011;41758;51.992;5.890;2022-07-01T11:49:26;4.80;;;1.65;;
55827;SDS011;41758;51.992;5.890;2022-07-01T11:54:24;5.03;;;1.65;;
55827;SDS011;41758;51.992;5.890;2022-07-01T11:56:50;4.40;;;1.40;;
55827;SDS011;41758;51.992;5.890;2022-07-01T11:59:16;3.85;;;1.60;;
55827;SDS011;41758;51.992;5.890;2022-07-01T12:01:53;3.63;;;1.45;;
55827;SDS011;41758;51.992;5.890;2022-07-01T12:04:22;4.25;;;1.13;;
55827;SDS011;41758;51.992;5.890;2022-07-01T12:09:38;5.00;;;1.30;;
55827;SDS011;41758;51.992;5.890;2022-07-01T12:12:17;3.65;;;1.40;;
55827;SDS011;41758;51.992;5.890;2022-07-01T12:14:54;2.92;;;1.20;;
55827;SDS011;41758;51.992;5.890;2022-07-01T12:17:46;3.05;;;1.30;;
55827;SDS011;41758;51.992;5.890;2022-07-01T12:20:15;4.43;;;1.30;;
55827;SDS011;41758;51.992;5.890;2022-07-01T12:26:03;3.25;;;1.30;;
55827;SDS011;41758;51.992;5.890;2022-07-01T12:32:01;3.15;;;1.45;;
55827;SDS011;41758;51.992;5.890;2022-07-01T12:34:38;4.70;;;1.40;;
55827;SDS011;41758;51.992;5.890;2022-07-01T12:37:10;3.15;;;1.27;;
55827;SDS011;41758;51.992;5.890;2022-07-01T12:42:54;4.13;;;1.30;;
55827;SDS011;41758;51.992;5.890;2022-07-01T12:45:58;3.08;;;1.20;;
55827;SDS011;41758;51.992;5.890;2022-07-01T12:50:55;4.25;;;1.30;;
55827;SDS011;41758;51.992;5.890;2022-07-01T12:53:21;3.60;;;1.50;;
55827;SDS011;41758;51.992;5.890;2022-07-01T12:55:57;4.25;;;1.58;;
55827;SDS011;41758;51.992;5.890;2022-07-01T12:58:25;4.25;;;1.60;;
55827;SDS011;41758;51.992;5.890;2022-07-01T13:00:53;2.22;;;1.10;;
55827;SDS011;41758;51.992;5.890;2022-07-01T13:03:24;4.72;;;1.45;;
55827;SDS011;41758;51.992;5.890;2022-07-01T13:05:51;3.60;;;1.27;;
55827;SDS011;41758;51.992;5.890;2022-07-01T13:08:18;2.65;;;1.20;;
55827;SDS011;41758;51.992;5.890;2022-07-01T13:10:45;5.40;;;1.50;;
55827;SDS011;41758;51.992;5.890;2022-07-01T13:13:14;4.50;;;1.25;;
55827;SDS011;41758;51.992;5.890;2022-07-01T13:16:00;3.70;;;1.45;;
55827;SDS011;41758;51.992;5.890;2022-07-01T13:18:26;2.95;;;1.30;;
55827;SDS011;41758;51.992;5.890;2022-07-01T13:20:52;3.65;;;1.50;;
55827;SDS011;41758;51.992;5.890;2022-07-01T13:23:18;4.50;;;1.40;;
55827;SDS011;41758;51.992;5.890;2022-07-01T13:25:44;2.83;;;1.40;;
55827;SDS011;41758;51.992;5.890;2022-07-01T13:28:10;4.88;;;1.40;;
55827;SDS011;41758;51.992;5.890;2022-07-01T13:30:36;3.50;;;1.30;;
55827;SDS011;41758;51.992;5.890;2022-07-01T13:33:02;5.55;;;1.77;;
55827;SDS011;41758;51.992;5.890;2022-07-01T13:35:28;3.08;;;1.45;;
55827;SDS011;41758;51.992;5.890;2022-07-01T13:37:54;3.47;;;1.50;;
55827;SDS011;41758;51.992;5.890;2022-07-01T13:40:20;3.97;;;1.50;;
55827;SDS011;41758;51.992;5.890;2022-07-01T13:42:47;4.30;;;1.83;;
55827;SDS011;41758;51.992;5.890;2022-07-01T13:45:12;5.07;;;1.63;;
55827;SDS011;41758;51.992;5.890;2022-07-01T13:47:38;3.70;;;1.80;;
55827;SDS011;41758;51.992;5.890;2022-07-01T13:50:05;6.15;;;1.95;;
55827;SDS011;41758;51.992;5.890;2022-07-01T13:52:31;5.65;;;1.52;;
55827;SDS011;41758;51.992;5.890;2022-07-01T13:54:57;4.55;;;1.88;;
55827;SDS011;41758;51.992;5.890;2022-07-01T13:57:24;3.92;;;1.33;;
55827;SDS011;41758;51.992;5.890;2022-07-01T13:59:50;3.28;;;1.50;;
55827;SDS011;41758;51.992;5.890;2022-07-01T14:02:17;3.63;;;1.25;;
55827;SDS011;41758;51.992;5.890;2022-07-01T14:04:44;3.95;;;1.30;;
55827;SDS011;41758;51.992;5.890;2022-07-01T14:07:13;3.50;;;1.40;;
55827;SDS011;41758;51.992;5.890;2022-07-01T14:09:39;3.75;;;1.38;;
55827;SDS011;41758;51.992;5.890;2022-07-01T14:12:06;4.03;;;1.45;;
55827;SDS011;41758;51.992;5.890;2022-07-01T14:14:32;3.38;;;1.38;;
55827;SDS011;41758;51.992;5.890;2022-07-01T14:16:58;3.53;;;1.20;;
55827;SDS011;41758;51.992;5.890;2022-07-01T14:19:24;5.53;;;1.20;;
55827;SDS011;41758;51.992;5.890;2022-07-01T14:21:49;3.40;;;1.20;;
55827;SDS011;41758;51.992;5.890;2022-07-01T14:24:15;4.05;;;1.42;;
55827;SDS011;41758;51.992;5.890;2022-07-01T14:26:41;3.20;;;1.20;;
55827;SDS011;41758;51.992;5.890;2022-07-01T14:29:07;3.38;;;1.38;;
55827;SDS011;41758;51.992;5.890;2022-07-01T14:31:33;3.92;;;1.38;;
55827;SDS011;41758;51.992;5.890;2022-07-01T14:33:59;3.22;;;1.35;;
55827;SDS011;41758;51.992;5.890;2022-07-01T14:36:24;3.35;;;1.17;;
55827;SDS011;41758;51.992;5.890;2022-07-01T14:38:50;3.03;;;1.02;;
55827;SDS011;41758;51.992;5.890;2022-07-01T14:41:16;6.05;;;1.30;;
55827;SDS011;41758;51.992;5.890;2022-07-01T14:43:41;2.50;;;1.00;;
55827;SDS011;41758;51.992;5.890;2022-07-01T14:46:07;3.50;;;1.27;;
55827;SDS011;41758;51.992;5.890;2022-07-01T14:48:36;3.25;;;1.10;;
55827;SDS011;41758;51.992;5.890;2022-07-01T14:51:04;3.55;;;1.00;;
55827;SDS011;41758;51.992;5.890;2022-07-01T14:53:30;3.42;;;1.00;;
55827;SDS011;41758;51.992;5.890;2022-07-01T14:55:56;2.28;;;0.98;;
55827;SDS011;41758;51.992;5.890;2022-07-01T14:58:21;3.58;;;1.25;;
55827;SDS011;41758;51.992;5.890;2022-07-01T15:00:47;4.72;;;1.15;;
55827;SDS011;41758;51.992;5.890;2022-07-01T15:03:13;3.42;;;1.00;;
55827;SDS011;41758;51.992;5.890;2022-07-01T15:05:39;2.90;;;1.08;;
55827;SDS011;41758;51.992;5.890;2022-07-01T15:08:05;3.78;;;1.20;;
55827;SDS011;41758;51.992;5.890;2022-07-01T15:10:31;5.30;;;1.23;;
55827;SDS011;41758;51.992;5.890;2022-07-01T15:12:57;2.83;;;1.25;;
55827;SDS011;41758;51.992;5.890;2022-07-01T15:15:22;3.25;;;1.27;;
55827;SDS011;41758;51.992;5.890;2022-07-01T15:17:49;2.97;;;1.17;;
55827;SDS011;41758;51.992;5.890;2022-07-01T15:20:15;4.15;;;1.20;;
55827;SDS011;41758;51.992;5.890;2022-07-01T15:22:41;3.95;;;1.63;;
55827;SDS011;41758;51.992;5.890;2022-07-01T15:25:08;4.55;;;1.40;;
55827;SDS011;41758;51.992;5.890;2022-07-01T15:27:35;3.55;;;1.35;;
55827;SDS011;41758;51.992;5.890;2022-07-01T15:30:02;6.10;;;1.63;;
55827;SDS011;41758;51.992;5.890;2022-07-01T15:32:29;5.43;;;1.50;;
55827;SDS011;41758;51.992;5.890;2022-07-01T15:34:55;3.47;;;1.40;;
55827;SDS011;41758;51.992;5.890;2022-07-01T15:37:21;4.20;;;1.33;;
55827;SDS011;41758;51.992;5.890;2022-07-01T15:39:49;5.07;;;1.52;;
55827;SDS011;41758;51.992;5.890;2022-07-01T15:42:18;4.03;;;1.60;;
55827;SDS011;41758;51.992;5.890;2022-07-01T15:44:44;3.83;;;1.38;;
55827;SDS011;41758;51.992;5.890;2022-07-01T15:47:10;4.82;;;1.83;;
55827;SDS011;41758;51.992;5.890;2022-07-01T15:49:54;3.67;;;1.38;;
55827;SDS011;41758;51.992;5.890;2022-07-01T15:52:21;4.97;;;1.30;;
55827;SDS011;41758;51.992;5.890;2022-07-01T15:54:47;4.53;;;1.40;;
55827;SDS011;41758;51.992;5.890;2022-07-01T15:57:12;3.28;;;1.45;;
55827;SDS011;41758;51.992;5.890;2022-07-01T15:59:38;5.15;;;1.70;;
55827;SDS011;41758;51.992;5.890;2022-07-01T16:02:04;4.38;;;1.67;;
55827;SDS011;41758;51.992;5.890;2022-07-01T16:04:33;3.33;;;1.30;;
55827;SDS011;41758;51.992;5.890;2022-07-01T16:07:02;3.03;;;1.30;;
55827;SDS011;41758;51.992;5.890;2022-07-01T16:09:31;3.45;;;1.38;;
55827;SDS011;41758;51.992;5.890;2022-07-01T16:11:58;5.32;;;1.40;;